createdAt,value
2022-09-14T00:01:26.262Z,17.59
2022-09-14T00:04:03.716Z,17.57
2022-09-14T00:06:35.602Z,17.52
2022-09-14T00:09:07.903Z,17.51
2022-09-14T00:11:41.262Z,17.51
2022-09-14T00:14:13.345Z,17.51
2022-09-14T00:16:45.370Z,17.50
2022-09-14T00:19:20.929Z,17.48
2022-09-14T00:21:55.820Z,17.44
2022-09-14T00:24:30.837Z,17.42
2022-09-14T00:27:02.820Z,17.37
2022-09-14T00:29:34.823Z,17.33
2022-09-14T00:32:06.661Z,17.28
2022-09-14T00:34:38.711Z,17.27
2022-09-14T00:37:11.337Z,17.25
2022-09-14T00:39:43.724Z,17.23
2022-09-14T00:42:19.414Z,17.22
2022-09-14T00:44:51.255Z,17.23
2022-09-14T00:47:23.661Z,17.28
2022-09-14T00:49:55.578Z,17.32
2022-09-14T00:52:30.362Z,17.36
2022-09-14T00:55:08.249Z,17.39
2022-09-14T00:57:53.661Z,17.42
2022-09-14T01:00:29.403Z,17.43
2022-09-14T01:03:01.883Z,17.44
2022-09-14T01:05:49.638Z,17.46
2022-09-14T01:08:53.617Z,17.48
2022-09-14T01:11:36.360Z,17.47
2022-09-14T01:14:14.994Z,17.45
2022-09-14T01:17:48.649Z,17.44
2022-09-14T01:20:33.302Z,17.40
2022-09-14T01:23:48.347Z,17.36
2022-09-14T01:26:41.817Z,17.34
2022-09-14T01:29:31.869Z,17.30
2022-09-14T01:32:12.711Z,17.26
2022-09-14T01:34:44.453Z,17.24
2022-09-14T01:37:29.277Z,17.22
2022-09-14T01:40:10.252Z,17.19
2022-09-14T01:42:43.080Z,17.15
2022-09-14T01:45:19.055Z,17.12
2022-09-14T01:48:05.819Z,17.10
2022-09-14T01:50:43.834Z,17.08
2022-09-14T01:53:20.082Z,17.02
2022-09-14T01:56:00.038Z,16.99
2022-09-14T01:58:39.713Z,16.98
2022-09-14T02:01:19.444Z,16.96
2022-09-14T02:03:58.080Z,16.95
2022-09-14T02:06:37.151Z,16.92
2022-09-14T02:09:12.705Z,16.87
2022-09-14T02:11:44.806Z,16.83
2022-09-14T02:14:16.767Z,16.80
2022-09-14T02:16:48.691Z,16.80
2022-09-14T02:19:23.829Z,16.73
2022-09-14T02:21:56.065Z,16.71
2022-09-14T02:24:28.351Z,16.68
2022-09-14T02:27:01.105Z,16.68
2022-09-14T02:29:33.698Z,16.65
2022-09-14T02:32:27.396Z,16.62
2022-09-14T02:35:19.227Z,16.59
2022-09-14T02:38:19.797Z,16.55
2022-09-14T02:41:10.545Z,16.52
2022-09-14T02:43:59.322Z,16.50
2022-09-14T02:47:02.122Z,16.50
2022-09-14T02:49:45.931Z,16.48
2022-09-14T02:52:23.649Z,16.46
2022-09-14T02:55:05.273Z,16.42
2022-09-14T02:58:22.531Z,16.39
2022-09-14T03:00:54.788Z,16.39
2022-09-14T03:03:26.696Z,16.37
2022-09-14T03:05:59.131Z,16.34
2022-09-14T03:08:31.230Z,16.35
2022-09-14T03:11:03.413Z,16.33
2022-09-14T03:13:36.423Z,16.29
2022-09-14T03:16:10.763Z,16.28
2022-09-14T03:18:43.045Z,16.29
2022-09-14T03:21:16.473Z,16.32
2022-09-14T03:23:51.233Z,16.34
2022-09-14T03:26:24.561Z,16.36
2022-09-14T03:28:58.513Z,16.39
2022-09-14T03:31:30.613Z,16.41
2022-09-14T03:34:02.795Z,16.44
2022-09-14T03:36:34.663Z,16.48
2022-09-14T03:39:06.487Z,16.49
2022-09-14T03:41:38.991Z,16.50
2022-09-14T03:44:10.919Z,16.52
2022-09-14T03:46:44.325Z,16.51
2022-09-14T03:49:16.320Z,16.51
2022-09-14T03:51:48.249Z,16.48
2022-09-14T03:54:20.154Z,16.49
2022-09-14T03:56:53.201Z,16.46
2022-09-14T03:59:25.344Z,16.36
2022-09-14T04:01:57.389Z,16.28
2022-09-14T04:04:29.463Z,16.20
2022-09-14T04:07:01.308Z,16.12
2022-09-14T04:09:34.063Z,16.09
2022-09-14T04:12:06.323Z,16.08
2022-09-14T04:14:38.273Z,16.10
2022-09-14T04:17:10.129Z,16.15
2022-09-14T04:19:42.227Z,16.19
2022-09-14T04:22:14.057Z,16.17
2022-09-14T04:24:45.967Z,16.16
2022-09-14T04:27:17.937Z,16.14
2022-09-14T04:29:50.593Z,16.13
2022-09-14T04:32:22.554Z,16.12
2022-09-14T04:34:54.544Z,16.13
2022-09-14T04:37:26.488Z,16.15
2022-09-14T04:39:59.004Z,16.10
2022-09-14T04:42:31.451Z,16.08
2022-09-14T04:45:04.317Z,16.06
2022-09-14T04:47:36.240Z,16.05
2022-09-14T04:50:08.557Z,16.04
2022-09-14T04:52:40.663Z,16.04
2022-09-14T04:55:12.610Z,16.06
2022-09-14T04:57:44.553Z,16.11
2022-09-14T05:00:16.805Z,16.13
2022-09-14T05:02:48.850Z,16.16
2022-09-14T05:05:20.903Z,16.19
2022-09-14T05:07:52.863Z,16.22
2022-09-14T05:10:24.819Z,16.28
2022-09-14T05:12:56.725Z,16.34
2022-09-14T05:15:28.659Z,16.40
2022-09-14T05:18:00.556Z,16.44
2022-09-14T05:20:32.513Z,16.46
2022-09-14T05:23:04.532Z,16.48
2022-09-14T05:25:36.366Z,16.54
2022-09-14T05:28:08.565Z,16.57
2022-09-14T05:30:41.000Z,16.58
2022-09-14T05:33:13.230Z,16.61
2022-09-14T05:35:45.912Z,16.65
2022-09-14T05:38:17.846Z,16.66
2022-09-14T05:40:54.329Z,16.66
2022-09-14T05:43:26.537Z,16.67
2022-09-14T05:46:03.375Z,16.65
2022-09-14T05:48:36.526Z,16.66
2022-09-14T05:51:14.837Z,16.67
2022-09-14T05:53:55.748Z,16.67
2022-09-14T05:56:29.297Z,16.70
2022-09-14T05:59:01.241Z,16.70
2022-09-14T06:01:33.327Z,16.70
2022-09-14T06:04:05.273Z,16.70
2022-09-14T06:06:37.199Z,16.73
2022-09-14T06:09:09.164Z,16.76
2022-09-14T06:11:41.203Z,16.86
2022-09-14T06:14:13.300Z,16.93
2022-09-14T06:16:45.436Z,17.00
2022-09-14T06:19:17.756Z,17.05
2022-09-14T06:21:49.793Z,17.07
2022-09-14T06:24:21.804Z,17.08
2022-09-14T06:26:53.687Z,17.10
2022-09-14T06:29:25.613Z,17.08
2022-09-14T06:31:57.542Z,17.11
2022-09-14T06:34:30.449Z,17.14
2022-09-14T06:37:02.714Z,17.18
2022-09-14T06:39:34.812Z,17.22
2022-09-14T06:42:06.866Z,17.25
2022-09-14T06:44:42.001Z,17.29
2022-09-14T06:47:14.272Z,17.31
2022-09-14T06:49:46.277Z,17.35
2022-09-14T06:52:18.309Z,17.40
2022-09-14T06:54:50.616Z,17.43
2022-09-14T06:57:22.444Z,17.46
2022-09-14T06:59:54.429Z,17.46
2022-09-14T07:02:26.396Z,17.43
2022-09-14T07:04:58.382Z,17.43
2022-09-14T07:07:30.889Z,17.41
2022-09-14T07:10:02.949Z,17.44
2022-09-14T07:12:34.803Z,17.41
2022-09-14T07:15:07.587Z,17.40
2022-09-14T07:17:39.453Z,17.38
2022-09-14T07:20:11.372Z,17.36
2022-09-14T07:22:43.936Z,17.38
2022-09-14T07:25:15.864Z,17.45
2022-09-14T07:27:47.886Z,17.54
2022-09-14T07:30:19.864Z,17.58
2022-09-14T07:32:51.956Z,17.57
2022-09-14T07:35:24.084Z,17.59
2022-09-14T07:37:56.166Z,17.61
2022-09-14T07:40:28.331Z,17.66
2022-09-14T07:43:01.847Z,17.68
2022-09-14T07:45:35.107Z,17.74
2022-09-14T07:48:07.219Z,17.79
2022-09-14T07:50:39.552Z,17.89
2022-09-14T07:53:11.518Z,17.98
2022-09-14T07:55:43.513Z,18.05
2022-09-14T07:58:15.699Z,18.11
2022-09-14T08:00:47.663Z,18.19
2022-09-14T08:03:19.546Z,18.28
2022-09-14T08:06:05.829Z,18.35
2022-09-14T08:08:40.510Z,18.40
2022-09-14T08:11:15.006Z,18.49
2022-09-14T08:13:50.471Z,18.58
2022-09-14T08:16:23.662Z,18.69
2022-09-14T08:18:58.109Z,18.87
2022-09-14T08:21:32.087Z,19.01
2022-09-14T08:24:04.668Z,19.08
2022-09-14T08:26:36.657Z,19.12
2022-09-14T08:29:08.810Z,19.15
2022-09-14T08:31:41.276Z,19.18
2022-09-14T08:34:14.167Z,19.20
2022-09-14T08:36:47.227Z,19.25
2022-09-14T08:39:19.317Z,19.29
2022-09-14T08:42:00.072Z,19.38
2022-09-14T08:44:41.991Z,19.44
2022-09-14T08:47:28.554Z,19.54
2022-09-14T08:50:03.158Z,19.66
2022-09-14T08:52:47.005Z,19.71
2022-09-14T08:55:41.504Z,19.81
2022-09-14T08:58:20.637Z,19.90
2022-09-14T09:01:09.486Z,20.03
2022-09-14T09:03:55.991Z,20.20
2022-09-14T09:07:00.813Z,20.34
2022-09-14T09:09:44.960Z,20.42
2022-09-14T09:12:38.052Z,20.50
2022-09-14T09:15:29.265Z,20.62
2022-09-14T09:18:09.377Z,20.78
2022-09-14T09:20:47.292Z,20.87
2022-09-14T09:23:24.148Z,20.93
2022-09-14T09:26:14.689Z,20.93
2022-09-14T09:28:51.389Z,20.96
2022-09-14T09:31:28.156Z,20.93
2022-09-14T09:34:38.595Z,20.94
2022-09-14T09:37:22.441Z,20.94
2022-09-14T09:39:54.670Z,20.83
2022-09-14T09:42:28.241Z,20.76
2022-09-14T09:45:05.875Z,20.72
2022-09-14T09:47:40.989Z,20.69
2022-09-14T09:50:13.564Z,20.78
2022-09-14T09:52:54.286Z,20.85
2022-09-14T09:55:32.220Z,20.92
2022-09-14T09:58:41.464Z,21.04
2022-09-14T10:01:26.731Z,21.12
2022-09-14T10:04:09.077Z,21.14
2022-09-14T10:06:46.566Z,21.09
2022-09-14T10:09:20.311Z,21.03
2022-09-14T10:11:59.190Z,21.00
2022-09-14T10:14:32.542Z,21.00
2022-09-14T10:17:17.428Z,21.00
2022-09-14T10:19:54.006Z,20.97
2022-09-14T10:22:34.471Z,21.00
2022-09-14T10:25:15.189Z,21.08
2022-09-14T10:27:56.075Z,21.13
2022-09-14T10:30:34.589Z,21.21
2022-09-14T10:33:12.627Z,21.38
2022-09-14T10:36:05.646Z,21.54
2022-09-14T10:38:40.176Z,21.68
2022-09-14T10:41:36.929Z,21.75
2022-09-14T10:44:08.916Z,21.76
2022-09-14T10:47:01.364Z,21.70
2022-09-14T10:49:38.023Z,21.62
2022-09-14T10:52:38.125Z,21.55
2022-09-14T10:55:24.328Z,21.47
2022-09-14T10:58:04.277Z,21.41
2022-09-14T11:00:45.477Z,21.42
2022-09-14T11:03:27.547Z,21.48
2022-09-14T11:06:02.724Z,21.53
2022-09-14T11:08:43.610Z,21.64
2022-09-14T11:11:27.515Z,21.74
2022-09-14T11:14:34.841Z,21.82
2022-09-14T11:17:07.061Z,21.83
2022-09-14T11:20:00.608Z,21.81
2022-09-14T11:22:50.513Z,21.70
2022-09-14T11:25:33.472Z,21.65
2022-09-14T11:28:37.912Z,21.59
2022-09-14T11:31:28.286Z,21.58
2022-09-14T11:34:15.793Z,21.61
2022-09-14T11:36:50.944Z,21.59
2022-09-14T11:39:26.964Z,21.48
2022-09-14T11:42:22.844Z,21.31
2022-09-14T11:45:04.065Z,21.20
2022-09-14T11:47:45.226Z,21.15
2022-09-14T11:50:24.165Z,21.14
2022-09-14T11:53:03.850Z,21.07
2022-09-14T11:55:36.260Z,20.96
2022-09-14T11:58:16.357Z,20.83
2022-09-14T12:01:30.479Z,20.60
2022-09-14T12:04:11.597Z,20.48
2022-09-14T12:06:50.044Z,20.36
2022-09-14T12:09:23.979Z,20.28
2022-09-14T12:11:59.780Z,20.31
2022-09-14T12:14:35.855Z,20.41
2022-09-14T12:20:58.299Z,20.47
2022-09-14T12:23:57.987Z,20.44
2022-09-14T12:26:32.830Z,20.45
2022-09-14T12:29:07.945Z,20.48
2022-09-14T12:32:01.254Z,20.58
2022-09-14T12:34:38.031Z,20.71
2022-09-14T12:37:29.812Z,21.43
2022-09-14T12:40:23.291Z,22.37
2022-09-14T12:42:59.338Z,22.63
2022-09-14T12:46:09.787Z,22.65
2022-09-14T12:48:47.842Z,22.53
2022-09-14T12:51:32.552Z,22.36
2022-09-14T12:54:07.523Z,22.27
2022-09-14T12:56:53.596Z,22.19
2022-09-14T12:59:50.051Z,22.11
2022-09-14T13:02:47.888Z,22.12
2022-09-14T13:05:23.832Z,22.16
2022-09-14T13:07:56.239Z,22.21
2022-09-14T13:10:33.469Z,22.30
2022-09-14T13:13:14.436Z,22.47
2022-09-14T13:15:56.032Z,22.54
2022-09-14T13:18:38.564Z,22.55
2022-09-14T13:21:22.157Z,22.50
2022-09-14T13:23:54.090Z,22.40
2022-09-14T13:26:31.635Z,22.25
2022-09-14T13:29:07.883Z,22.06
2022-09-14T13:31:40.384Z,21.89
2022-09-14T13:34:22.245Z,21.72
2022-09-14T13:36:55.700Z,21.66
2022-09-14T13:39:32.388Z,21.60
2022-09-14T13:42:05.179Z,21.56
2022-09-14T13:44:45.862Z,21.52
2022-09-14T13:47:22.956Z,21.48
2022-09-14T13:49:55.569Z,21.44
2022-09-14T13:52:57.522Z,21.38
2022-09-14T13:55:33.102Z,21.33
2022-09-14T13:58:15.295Z,21.29
2022-09-14T14:00:57.704Z,21.27
2022-09-14T14:03:41.698Z,21.28
2022-09-14T14:06:29.606Z,21.33
2022-09-14T14:09:05.440Z,21.33
2022-09-14T14:11:42.929Z,21.44
2022-09-14T14:14:22.643Z,21.53
2022-09-14T14:17:10.898Z,21.64
2022-09-14T14:19:43.792Z,21.67
2022-09-14T14:22:15.867Z,21.72
2022-09-14T14:27:46.216Z,21.78
2022-09-14T14:30:21.377Z,21.78
2022-09-14T14:32:54.860Z,21.80
2022-09-14T14:35:29.922Z,21.79
2022-09-14T14:38:01.948Z,21.81
2022-09-14T14:40:34.853Z,21.83
2022-09-14T14:43:08.240Z,21.89
2022-09-14T14:45:40.201Z,21.92
2022-09-14T14:50:46.599Z,21.88
2022-09-14T14:53:18.515Z,21.92
2022-09-14T14:55:50.436Z,21.92
2022-09-14T14:58:23.068Z,21.98
2022-09-14T15:00:55.151Z,22.03
2022-09-14T15:03:27.216Z,22.03
2022-09-14T15:05:59.151Z,22.06
2022-09-14T15:08:31.060Z,22.11
2022-09-14T15:11:02.935Z,22.13
2022-09-14T15:13:34.830Z,22.15
2022-09-14T15:16:07.012Z,22.17
2022-09-14T15:18:39.009Z,22.16
2022-09-14T15:21:10.950Z,22.06
2022-09-14T15:23:42.917Z,21.94
2022-09-14T15:26:14.824Z,21.86
2022-09-14T15:28:48.618Z,21.79
2022-09-14T15:31:21.070Z,21.75
2022-09-14T15:33:53.107Z,21.70
2022-09-14T15:36:47.882Z,21.67
2022-09-14T15:39:24.487Z,21.66
2022-09-14T15:41:58.742Z,21.67
2022-09-14T15:44:30.994Z,21.71
2022-09-14T15:47:02.961Z,21.73
2022-09-14T15:49:34.992Z,21.71
2022-09-14T15:52:07.372Z,21.68
2022-09-14T15:54:39.556Z,21.62
2022-09-14T15:57:11.909Z,21.59
2022-09-14T15:59:43.714Z,21.59
2022-09-14T16:02:17.530Z,21.60
2022-09-14T16:04:49.549Z,21.57
2022-09-14T16:07:21.431Z,21.54
2022-09-14T16:09:57.132Z,21.51
2022-09-14T16:12:30.606Z,21.49
2022-09-14T16:15:02.619Z,21.46
2022-09-14T16:17:34.409Z,21.44
2022-09-14T16:20:08.818Z,21.35
2022-09-14T16:22:40.746Z,21.29
2022-09-14T16:25:12.601Z,21.22
2022-09-14T16:27:44.453Z,21.14
2022-09-14T16:30:16.846Z,21.07
2022-09-14T16:32:48.759Z,20.95
2022-09-14T16:35:20.613Z,20.87
2022-09-14T16:37:52.469Z,20.82
2022-09-14T16:40:25.426Z,20.80
2022-09-14T16:42:57.353Z,20.81
2022-09-14T16:45:29.270Z,20.81
2022-09-14T16:48:01.622Z,20.82
2022-09-14T16:50:33.622Z,20.83
2022-09-14T16:53:05.420Z,20.77
2022-09-14T16:55:37.198Z,20.68
2022-09-14T16:58:08.998Z,20.58
2022-09-14T17:00:44.093Z,20.53
2022-09-14T17:03:16.333Z,20.50
2022-09-14T17:05:48.160Z,20.49
2022-09-14T17:08:19.946Z,20.46
2022-09-14T17:10:52.275Z,20.44
2022-09-14T17:13:24.767Z,20.40
2022-09-14T17:16:05.727Z,20.35
2022-09-14T17:18:40.988Z,20.32
2022-09-14T17:21:18.534Z,20.23
2022-09-14T17:23:50.718Z,20.19
2022-09-14T17:26:23.385Z,20.15
2022-09-14T17:28:56.957Z,20.12
2022-09-14T17:31:35.580Z,20.08
2022-09-14T17:34:10.706Z,20.05
2022-09-14T17:36:42.658Z,20.02
2022-09-14T17:39:15.652Z,19.98
2022-09-14T17:41:47.754Z,19.97
2022-09-14T17:44:19.967Z,19.93
2022-09-14T17:46:53.360Z,19.91
2022-09-14T17:49:25.526Z,19.85
2022-09-14T17:51:57.370Z,19.82
2022-09-14T17:54:29.426Z,19.78
2022-09-14T17:57:01.215Z,19.75
2022-09-14T17:59:33.005Z,19.73
2022-09-14T18:02:04.849Z,19.72
2022-09-14T18:04:36.701Z,19.68
2022-09-14T18:07:10.602Z,19.65
2022-09-14T18:09:42.582Z,19.62
2022-09-14T18:12:15.867Z,19.60
2022-09-14T18:14:47.993Z,19.55
2022-09-14T18:17:20.094Z,19.49
2022-09-14T18:19:57.751Z,19.47
2022-09-14T18:22:30.006Z,19.47
2022-09-14T18:25:03.862Z,19.44
2022-09-14T18:27:35.959Z,19.43
2022-09-14T18:30:08.826Z,19.44
2022-09-14T18:32:41.115Z,19.44
2022-09-14T18:35:15.060Z,19.43
2022-09-14T18:37:47.093Z,19.42
2022-09-14T18:40:20.406Z,19.40
2022-09-14T18:42:53.231Z,19.34
2022-09-14T18:45:25.256Z,19.31
2022-09-14T18:47:57.830Z,19.28
2022-09-14T18:50:31.176Z,19.25
2022-09-14T18:53:03.682Z,19.23
2022-09-14T18:55:36.060Z,19.19
2022-09-14T18:58:08.176Z,19.11
2022-09-14T19:00:46.931Z,19.07
2022-09-14T19:03:19.665Z,19.03
2022-09-14T19:05:51.678Z,19.00
2022-09-14T19:08:27.468Z,18.97
2022-09-14T19:11:20.712Z,18.94
2022-09-14T19:14:01.588Z,18.93
2022-09-14T19:16:33.542Z,18.92
2022-09-14T19:19:07.537Z,18.93
2022-09-14T19:21:39.714Z,18.94
2022-09-14T19:24:14.308Z,18.95
2022-09-14T19:26:49.617Z,18.93
2022-09-14T19:29:23.484Z,18.90
2022-09-14T19:31:56.489Z,18.88
2022-09-14T19:34:28.810Z,18.86
2022-09-14T19:37:00.790Z,18.84
2022-09-14T19:39:35.943Z,18.83
2022-09-14T19:42:08.078Z,18.80
2022-09-14T19:44:39.988Z,18.78
2022-09-14T19:47:14.929Z,18.73
2022-09-14T19:49:46.922Z,18.67
2022-09-14T19:52:18.773Z,18.57
2022-09-14T19:54:50.710Z,18.52
2022-09-14T19:57:22.658Z,18.47
2022-09-14T19:59:54.481Z,18.45
2022-09-14T20:02:26.591Z,18.44
2022-09-14T20:04:58.837Z,18.43
2022-09-14T20:07:30.626Z,18.40
2022-09-14T20:10:02.535Z,18.33
2022-09-14T20:12:34.485Z,18.26
2022-09-14T20:15:06.922Z,18.21
2022-09-14T20:17:38.961Z,18.17
2022-09-14T20:20:11.713Z,18.12
2022-09-14T20:22:43.870Z,18.08
2022-09-14T20:25:15.834Z,18.06
2022-09-14T20:27:48.052Z,18.04
2022-09-14T20:30:20.653Z,18.00
2022-09-14T20:32:52.691Z,17.97
2022-09-14T20:35:24.513Z,17.93
2022-09-14T20:37:56.408Z,17.87
2022-09-14T20:40:28.427Z,17.86
2022-09-14T20:43:01.833Z,17.84
2022-09-14T20:45:33.674Z,17.83
2022-09-14T20:48:05.506Z,17.82
2022-09-14T20:50:37.352Z,17.81
2022-09-14T20:53:09.353Z,17.76
2022-09-14T20:55:41.102Z,17.69
2022-09-14T20:58:13.047Z,17.66
2022-09-14T21:00:46.300Z,17.58
2022-09-14T21:03:18.104Z,17.51
2022-09-14T21:05:53.005Z,17.44
2022-09-14T21:08:25.501Z,17.40
2022-09-14T21:10:57.493Z,17.36
2022-09-14T21:13:31.639Z,17.35
2022-09-14T21:16:18.603Z,17.31
2022-09-14T21:19:01.923Z,17.31
2022-09-14T21:21:36.882Z,17.32
2022-09-14T21:24:10.548Z,17.34
2022-09-14T21:26:43.509Z,17.34
2022-09-14T21:29:20.452Z,17.33
2022-09-14T21:31:52.736Z,17.33
2022-09-14T21:34:24.646Z,17.31
2022-09-14T21:36:56.794Z,17.30
2022-09-14T21:39:28.957Z,17.25
2022-09-14T21:42:00.869Z,17.23
2022-09-14T21:44:38.759Z,17.20
2022-09-14T21:47:10.701Z,17.20
2022-09-14T21:49:42.728Z,17.23
2022-09-14T21:52:16.052Z,17.23
2022-09-14T21:54:47.956Z,17.19
2022-09-14T21:57:19.833Z,17.14
2022-09-14T21:59:51.592Z,17.09
2022-09-14T22:02:23.758Z,17.05
2022-09-14T22:04:55.646Z,17.05
2022-09-14T22:07:29.050Z,17.03
2022-09-14T22:10:01.003Z,17.02
2022-09-14T22:12:33.421Z,17.03
2022-09-14T22:15:05.818Z,17.03
2022-09-14T22:17:38.590Z,17.03
2022-09-14T22:20:10.972Z,17.03
2022-09-14T22:22:43.897Z,17.02
2022-09-14T22:25:15.872Z,16.98
2022-09-14T22:27:47.652Z,16.97
2022-09-14T22:30:19.728Z,16.95
2022-09-14T22:32:51.562Z,16.92
2022-09-14T22:35:23.405Z,16.92
2022-09-14T22:37:55.553Z,16.94
2022-09-14T22:40:30.173Z,16.90
2022-09-14T22:43:02.209Z,16.89
2022-09-14T22:45:34.214Z,16.88
2022-09-14T22:48:06.107Z,16.87
2022-09-14T22:50:37.901Z,16.88
2022-09-14T22:53:10.736Z,16.89
2022-09-14T22:55:43.880Z,16.89
2022-09-14T22:58:17.621Z,16.89
2022-09-14T23:00:49.754Z,16.88
2022-09-14T23:03:21.659Z,16.88
2022-09-14T23:05:55.617Z,16.85
2022-09-14T23:08:28.070Z,16.86
2022-09-14T23:11:04.183Z,16.87
2022-09-14T23:13:37.477Z,16.79
2022-09-14T23:16:14.616Z,16.73
2022-09-14T23:18:57.901Z,16.72
2022-09-14T23:21:31.453Z,16.70
2022-09-14T23:24:06.175Z,16.69
2022-09-14T23:26:38.484Z,16.69
2022-09-14T23:29:15.036Z,16.72
2022-09-14T23:31:46.999Z,16.78
2022-09-14T23:34:19.037Z,16.83
2022-09-14T23:36:50.915Z,16.85
2022-09-14T23:39:23.440Z,16.87
2022-09-14T23:41:55.646Z,16.92
2022-09-14T23:44:27.484Z,16.95
2022-09-14T23:46:59.996Z,17.00
2022-09-14T23:49:32.374Z,17.06
2022-09-14T23:52:04.409Z,17.04
2022-09-14T23:54:36.328Z,17.04
2022-09-14T23:57:08.245Z,17.04
2022-09-14T23:59:40.634Z,17.00
